sensor_id;sensor_type;location;lat;lon;timestamp;pressure;altitude;pressure_sealevel;temperature;humidity
76054;BME280;64752;48.870;9.082;2024-02-21T00:00:04;98988.78;;;6.00;100.00
76054;BME280;64752;48.870;9.082;2024-02-21T00:02:30;98991.31;;;5.86;100.00
76054;BME280;64752;48.870;9.082;2024-02-21T00:04:55;98991.31;;;5.75;100.00
76054;BME280;64752;48.870;9.082;2024-02-21T00:07:20;98985.34;;;5.87;100.00
76054;BME280;64752;48.870;9.082;2024-02-21T00:09:46;98981.06;;;6.01;100.00
76054;BME280;64752;48.870;9.082;2024-02-21T00:12:11;98989.63;;;6.08;100.00
76054;BME280;64752;48.870;9.082;2024-02-21T00:14:39;98980.16;;;6.21;100.00
76054;BME280;64752;48.870;9.082;2024-02-21T00:17:04;98979.31;;;6.31;100.00
76054;BME280;64752;48.870;9.082;2024-02-21T00:19:29;98962.97;;;6.33;100.00
76054;BME280;64752;48.870;9.082;2024-02-21T00:21:55;98962.09;;;6.44;99.98
76054;BME280;64752;48.870;9.082;2024-02-21T00:24:20;98956.09;;;6.42;99.53
76054;BME280;64752;48.870;9.082;2024-02-21T00:26:45;98949.19;;;6.50;98.82
76054;BME280;64752;48.870;9.082;2024-02-21T00:29:11;98944.88;;;6.53;99.15
76054;BME280;64752;48.870;9.082;2024-02-21T00:31:36;98945.72;;;6.59;97.63
76054;BME280;64752;48.870;9.082;2024-02-21T00:34:02;98947.41;;;6.60;98.94
76054;BME280;64752;48.870;9.082;2024-02-21T00:36:27;98937.16;;;6.52;98.43
76054;BME280;64752;48.870;9.082;2024-02-21T00:38:52;98935.44;;;6.51;98.80
76054;BME280;64752;48.870;9.082;2024-02-21T00:41:18;98930.25;;;6.52;97.92
76054;BME280;64752;48.870;9.082;2024-02-21T00:43:43;98932.84;;;6.60;97.69
76054;BME280;64752;48.870;9.082;2024-02-21T00:46:08;98929.38;;;6.60;97.55
76054;BME280;64752;48.870;9.082;2024-02-21T00:48:34;98928.53;;;6.59;98.74
76054;BME280;64752;48.870;9.082;2024-02-21T00:51:00;98934.53;;;6.60;97.80
76054;BME280;64752;48.870;9.082;2024-02-21T00:53:25;98926.84;;;6.52;98.46
76054;BME280;64752;48.870;9.082;2024-02-21T00:55:51;98925.09;;;6.57;97.73
76054;BME280;64752;48.870;9.082;2024-02-21T00:58:16;98920.81;;;6.56;97.62
76054;BME280;64752;48.870;9.082;2024-02-21T01:00:41;98922.53;;;6.52;98.46
76054;BME280;64752;48.870;9.082;2024-02-21T01:03:06;98914.84;;;6.51;98.54
76054;BME280;64752;48.870;9.082;2024-02-21T01:05:32;98911.41;;;6.46;99.17
76054;BME280;64752;48.870;9.082;2024-02-21T01:07:58;98905.41;;;6.41;99.36
76054;BME280;64752;48.870;9.082;2024-02-21T01:10:23;98897.69;;;6.39;99.94
76054;BME280;64752;48.870;9.082;2024-02-21T01:12:49;98898.56;;;6.38;99.91
76054;BME280;64752;48.870;9.082;2024-02-21T01:15:14;98894.31;;;6.32;100.00
76054;BME280;64752;48.870;9.082;2024-02-21T01:17:40;98882.28;;;6.33;100.00
76054;BME280;64752;48.870;9.082;2024-02-21T01:20:08;98887.41;;;6.28;100.00
76054;BME280;64752;48.870;9.082;2024-02-21T01:22:35;98882.31;;;6.27;100.00
76054;BME280;64752;48.870;9.082;2024-02-21T01:25:00;98882.31;;;6.22;100.00
76054;BME280;64752;48.870;9.082;2024-02-21T01:27:26;98876.31;;;6.17;100.00
76054;BME280;64752;48.870;9.082;2024-02-21T01:29:51;98871.16;;;6.18;100.00
76054;BME280;64752;48.870;9.082;2024-02-21T01:32:17;98875.44;;;6.26;100.00
76054;BME280;64752;48.870;9.082;2024-02-21T01:34:42;98862.53;;;6.27;100.00
76054;BME280;64752;48.870;9.082;2024-02-21T01:37:08;98859.09;;;6.31;100.00
76054;BME280;64752;48.870;9.082;2024-02-21T01:39:34;98856.50;;;6.33;100.00
76054;BME280;64752;48.870;9.082;2024-02-21T01:42:00;98854.78;;;6.32;100.00
76054;BME280;64752;48.870;9.082;2024-02-21T01:44:25;98851.38;;;6.33;100.00
76054;BME280;64752;48.870;9.082;2024-02-21T01:46:52;98845.41;;;6.23;100.00
76054;BME280;64752;48.870;9.082;2024-02-21T01:49:19;98848.81;;;6.19;100.00
76054;BME280;64752;48.870;9.082;2024-02-21T01:51:45;98842.78;;;6.26;100.00
76054;BME280;64752;48.870;9.082;2024-02-21T01:54:11;98839.38;;;6.26;100.00
76054;BME280;64752;48.870;9.082;2024-02-21T01:56:39;98841.03;;;6.39;99.53
76054;BME280;64752;48.870;9.082;2024-02-21T01:59:04;98835.81;;;6.47;98.43
76054;BME280;64752;48.870;9.082;2024-02-21T02:01:30;98827.25;;;6.49;97.94
76054;BME280;64752;48.870;9.082;2024-02-21T02:03:55;98818.63;;;6.55;97.10
76054;BME280;64752;48.870;9.082;2024-02-21T02:06:21;98826.34;;;6.55;96.94
76054;BME280;64752;48.870;9.082;2024-02-21T02:08:47;98811.72;;;6.62;96.51
76054;BME280;64752;48.870;9.082;2024-02-21T02:11:15;98814.25;;;6.68;96.37
76054;BME280;64752;48.870;9.082;2024-02-21T02:13:41;98810.78;;;6.69;95.69
76054;BME280;64752;48.870;9.082;2024-02-21T02:16:07;98813.34;;;6.72;96.05
76054;BME280;64752;48.870;9.082;2024-02-21T02:18:32;98797.91;;;6.70;96.28
76054;BME280;64752;48.870;9.082;2024-02-21T02:20:57;98797.06;;;6.67;95.96
76054;BME280;64752;48.870;9.082;2024-02-21T02:23:26;98791.06;;;6.68;97.31
76054;BME280;64752;48.870;9.082;2024-02-21T02:25:53;98787.63;;;6.67;98.00
76054;BME280;64752;48.870;9.082;2024-02-21T02:28:18;98781.59;;;6.70;97.99
76054;BME280;64752;48.870;9.082;2024-02-21T02:30:44;98777.31;;;6.66;97.53
76054;BME280;64752;48.870;9.082;2024-02-21T02:33:10;98784.22;;;6.62;98.02
76054;BME280;64752;48.870;9.082;2024-02-21T02:35:35;98768.75;;;6.61;98.49
76054;BME280;64752;48.870;9.082;2024-02-21T02:38:02;98762.72;;;6.63;100.00
76054;BME280;64752;48.870;9.082;2024-02-21T02:40:27;98763.66;;;6.54;100.00
76054;BME280;64752;48.870;9.082;2024-02-21T02:42:52;98759.44;;;6.44;100.00
76054;BME280;64752;48.870;9.082;2024-02-21T02:45:22;98756.00;;;6.44;100.00
76054;BME280;64752;48.870;9.082;2024-02-21T02:47:54;98753.44;;;6.41;100.00
76054;BME280;64752;48.870;9.082;2024-02-21T02:50:19;98758.63;;;6.34;100.00
76054;BME280;64752;48.870;9.082;2024-02-21T02:52:45;98767.22;;;6.30;100.00
76054;BME280;64752;48.870;9.082;2024-02-21T02:55:10;98772.41;;;6.21;100.00
76054;BME280;64752;48.870;9.082;2024-02-21T02:57:35;98768.19;;;6.12;100.00
76054;BME280;64752;48.870;9.082;2024-02-21T03:00:01;98768.25;;;6.03;100.00
76054;BME280;64752;48.870;9.082;2024-02-21T03:02:26;98774.25;;;5.93;100.00
76054;BME280;64752;48.870;9.082;2024-02-21T03:04:52;98778.53;;;5.88;100.00
76054;BME280;64752;48.870;9.082;2024-02-21T03:07:17;98772.56;;;5.89;100.00
76054;BME280;64752;48.870;9.082;2024-02-21T03:09:43;98758.84;;;5.88;100.00
76054;BME280;64752;48.870;9.082;2024-02-21T03:12:08;98759.69;;;5.87;100.00
76054;BME280;64752;48.870;9.082;2024-02-21T03:14:34;98753.66;;;5.93;100.00
76054;BME280;64752;48.870;9.082;2024-02-21T03:16:59;98752.81;;;5.88;100.00
76054;BME280;64752;48.870;9.082;2024-02-21T03:19:25;98756.22;;;5.93;100.00
76054;BME280;64752;48.870;9.082;2024-02-21T03:21:51;98747.66;;;5.92;100.00
76054;BME280;64752;48.870;9.082;2024-02-21T03:24:18;98745.94;;;5.90;100.00
76054;BME280;64752;48.870;9.082;2024-02-21T03:26:47;98736.50;;;5.89;100.00
76054;BME280;64752;48.870;9.082;2024-02-21T03:29:14;98722.81;;;5.88;100.00
76054;BME280;64752;48.870;9.082;2024-02-21T03:31:40;98723.66;;;5.84;100.00
76054;BME280;64752;48.870;9.082;2024-02-21T03:34:05;98730.53;;;5.84;100.00
76054;BME280;64752;48.870;9.082;2024-02-21T03:36:30;98729.69;;;5.85;100.00
76054;BME280;64752;48.870;9.082;2024-02-21T03:38:56;98720.25;;;5.80;100.00
76054;BME280;64752;48.870;9.082;2024-02-21T03:41:21;98725.38;;;5.84;100.00
76054;BME280;64752;48.870;9.082;2024-02-21T03:43:47;98732.25;;;5.80;100.00
76054;BME280;64752;48.870;9.082;2024-02-21T03:46:12;98729.72;;;5.71;100.00
76054;BME280;64752;48.870;9.082;2024-02-21T03:48:37;98725.47;;;5.60;100.00
76054;BME280;64752;48.870;9.082;2024-02-21T03:51:03;98722.94;;;5.50;100.00
76054;BME280;64752;48.870;9.082;2024-02-21T03:53:28;98711.78;;;5.57;100.00
76054;BME280;64752;48.870;9.082;2024-02-21T03:55:54;98701.50;;;5.57;100.00
76054;BME280;64752;48.870;9.082;2024-02-21T03:58:20;98704.94;;;5.50;100.00
76054;BME280;64752;48.870;9.082;2024-02-21T04:00:46;98708.38;;;5.43;100.00
76054;BME280;64752;48.870;9.082;2024-02-21T04:03:11;98725.53;;;5.33;100.00
76054;BME280;64752;48.870;9.082;2024-02-21T04:05:36;98710.16;;;5.22;100.00
76054;BME280;64752;48.870;9.082;2024-02-21T04:08:05;98693.84;;;5.31;100.00
76054;BME280;64752;48.870;9.082;2024-02-21T04:10:31;98693.88;;;5.11;100.00
76054;BME280;64752;48.870;9.082;2024-02-21T04:12:56;98692.19;;;5.07;100.00
76054;BME280;64752;48.870;9.082;2024-02-21T04:15:22;98669.91;;;5.15;100.00
76054;BME280;64752;48.870;9.082;2024-02-21T04:17:47;98666.50;;;5.02;100.00
76054;BME280;64752;48.870;9.082;2024-02-21T04:20:15;98662.22;;;4.96;100.00
76054;BME280;64752;48.870;9.082;2024-02-21T04:22:43;98672.53;;;4.87;100.00
76054;BME280;64752;48.870;9.082;2024-02-21T04:25:09;98690.53;;;4.75;100.00
76054;BME280;64752;48.870;9.082;2024-02-21T04:27:34;98693.94;;;4.55;100.00
76054;BME280;64752;48.870;9.082;2024-02-21T04:29:59;98692.22;;;4.53;100.00
76054;BME280;64752;48.870;9.082;2024-02-21T04:32:25;98681.97;;;4.45;100.00
76054;BME280;64752;48.870;9.082;2024-02-21T04:34:52;98669.97;;;4.61;100.00
76054;BME280;64752;48.870;9.082;2024-02-21T04:37:18;98665.69;;;4.71;100.00
76054;BME280;64752;48.870;9.082;2024-02-21T04:39:44;98680.22;;;4.79;100.00
76054;BME280;64752;48.870;9.082;2024-02-21T04:42:09;98682.81;;;4.72;100.00
76054;BME280;64752;48.870;9.082;2024-02-21T04:44:34;98685.38;;;4.61;100.00
76054;BME280;64752;48.870;9.082;2024-02-21T04:47:00;98692.22;;;4.40;100.00
76054;BME280;64752;48.870;9.082;2024-02-21T04:49:26;98675.09;;;4.41;100.00
76054;BME280;64752;48.870;9.082;2024-02-21T04:51:51;98674.25;;;4.45;100.00
76054;BME280;64752;48.870;9.082;2024-02-21T04:54:16;98670.81;;;4.37;100.00
76054;BME280;64752;48.870;9.082;2024-02-21T04:56:42;98680.22;;;4.41;100.00
76054;BME280;64752;48.870;9.082;2024-02-21T04:59:07;98686.22;;;4.37;100.00
76054;BME280;64752;48.870;9.082;2024-02-21T05:01:32;98674.25;;;4.54;100.00
76054;BME280;64752;48.870;9.082;2024-02-21T05:03:58;98675.97;;;4.71;100.00
76054;BME280;64752;48.870;9.082;2024-02-21T05:06:23;98673.41;;;4.68;100.00
76054;BME280;64752;48.870;9.082;2024-02-21T05:08:48;98670.81;;;4.78;100.00
76054;BME280;64752;48.870;9.082;2024-02-21T05:11:14;98667.38;;;4.89;100.00
76054;BME280;64752;48.870;9.082;2024-02-21T05:13:39;98663.94;;;4.90;100.00
76054;BME280;64752;48.870;9.082;2024-02-21T05:16:05;98670.81;;;4.91;100.00
76054;BME280;64752;48.870;9.082;2024-02-21T05:18:32;98661.38;;;4.88;100.00
76054;BME280;64752;48.870;9.082;2024-02-21T05:20:58;98647.66;;;4.94;100.00
76054;BME280;64752;48.870;9.082;2024-02-21T05:23:24;98632.28;;;4.91;100.00
76054;BME280;64752;48.870;9.082;2024-02-21T05:25:49;98627.09;;;4.92;100.00
76054;BME280;64752;48.870;9.082;2024-02-21T05:28:14;98626.25;;;4.93;100.00
76054;BME280;64752;48.870;9.082;2024-02-21T05:30:40;98626.25;;;4.93;100.00
76054;BME280;64752;48.870;9.082;2024-02-21T05:33:06;98610.00;;;4.93;100.00
76054;BME280;64752;48.870;9.082;2024-02-21T05:35:32;98605.75;;;4.78;100.00
76054;BME280;64752;48.870;9.082;2024-02-21T05:37:57;98608.31;;;4.70;100.00
76054;BME280;64752;48.870;9.082;2024-02-21T05:40:24;98615.19;;;4.65;100.00
76054;BME280;64752;48.870;9.082;2024-02-21T05:42:50;98614.31;;;4.63;100.00
76054;BME280;64752;48.870;9.082;2024-02-21T05:45:17;98610.94;;;4.49;100.00
76054;BME280;64752;48.870;9.082;2024-02-21T05:47:43;98607.47;;;4.39;100.00
76054;BME280;64752;48.870;9.082;2024-02-21T05:50:09;98610.06;;;4.31;100.00
76054;BME280;64752;48.870;9.082;2024-02-21T05:52:34;98613.50;;;4.36;100.00
76054;BME280;64752;48.870;9.082;2024-02-21T05:55:00;98608.34;;;4.42;100.00
76054;BME280;64752;48.870;9.082;2024-02-21T05:57:25;98611.78;;;4.38;100.00
76054;BME280;64752;48.870;9.082;2024-02-21T05:59:50;98616.06;;;4.25;100.00
76054;BME280;64752;48.870;9.082;2024-02-21T06:02:15;98621.16;;;4.05;100.00
76054;BME280;64752;48.870;9.082;2024-02-21T06:04:41;98615.16;;;3.91;100.00
76054;BME280;64752;48.870;9.082;2024-02-21T06:07:10;98609.16;;;3.88;100.00
76054;BME280;64752;48.870;9.082;2024-02-21T06:09:36;98615.13;;;3.73;100.00
76054;BME280;64752;48.870;9.082;2024-02-21T06:12:01;98609.13;;;3.60;100.00
76054;BME280;64752;48.870;9.082;2024-02-21T06:14:26;98601.47;;;3.88;100.00
76054;BME280;64752;48.870;9.082;2024-02-21T06:16:52;98606.63;;;3.92;100.00
76054;BME280;64752;48.870;9.082;2024-02-21T06:19:17;98608.34;;;4.09;100.00
76054;BME280;64752;48.870;9.082;2024-02-21T06:21:42;98603.19;;;3.89;100.00
76054;BME280;64752;48.870;9.082;2024-02-21T06:24:08;98619.44;;;3.84;100.00
76054;BME280;64752;48.870;9.082;2024-02-21T06:26:33;98616.91;;;3.94;100.00
76054;BME280;64752;48.870;9.082;2024-02-21T06:28:58;98619.47;;;4.20;100.00
76054;BME280;64752;48.870;9.082;2024-02-21T06:31:27;98627.19;;;4.31;100.00
76054;BME280;64752;48.870;9.082;2024-02-21T06:33:53;98628.03;;;4.36;100.00
76054;BME280;64752;48.870;9.082;2024-02-21T06:36:18;98625.47;;;4.50;100.00
76054;BME280;64752;48.870;9.082;2024-02-21T06:38:44;98624.59;;;4.68;100.00
76054;BME280;64752;48.870;9.082;2024-02-21T06:41:17;98604.03;;;4.77;100.00
76054;BME280;64752;48.870;9.082;2024-02-21T06:43:44;98608.28;;;4.87;100.00
76054;BME280;64752;48.870;9.082;2024-02-21T06:46:10;98604.03;;;4.75;100.00
76054;BME280;64752;48.870;9.082;2024-02-21T06:48:35;98603.19;;;4.64;100.00
76054;BME280;64752;48.870;9.082;2024-02-21T06:51:00;98599.78;;;4.63;100.00
76054;BME280;64752;48.870;9.082;2024-02-21T06:53:26;98596.31;;;4.66;100.00
76054;BME280;64752;48.870;9.082;2024-02-21T06:55:51;98594.63;;;4.68;100.00
76054;BME280;64752;48.870;9.082;2024-02-21T06:58:16;98589.47;;;4.82;100.00
76054;BME280;64752;48.870;9.082;2024-02-21T07:00:42;98590.28;;;4.90;100.00
76054;BME280;64752;48.870;9.082;2024-02-21T07:03:08;98591.94;;;5.11;100.00
76054;BME280;64752;48.870;9.082;2024-02-21T07:05:33;98587.50;;;5.43;100.00
76054;BME280;64752;48.870;9.082;2024-02-21T07:07:58;98583.06;;;5.72;100.00
76054;BME280;64752;48.870;9.082;2024-02-21T07:10:23;98573.47;;;5.91;100.00
76054;BME280;64752;48.870;9.082;2024-02-21T07:12:49;98581.09;;;6.10;99.32
76054;BME280;64752;48.870;9.082;2024-02-21T07:15:14;98580.09;;;6.28;96.45
76054;BME280;64752;48.870;9.082;2024-02-21T07:17:40;98578.38;;;6.28;94.96
76054;BME280;64752;48.870;9.082;2024-02-21T07:20:06;98572.81;;;6.71;96.03
76054;BME280;64752;48.870;9.082;2024-02-21T07:22:31;98570.69;;;7.07;92.38
76054;BME280;64752;48.870;9.082;2024-02-21T07:24:56;98574.38;;;7.56;89.38
76054;BME280;64752;48.870;9.082;2024-02-21T07:27:22;98565.66;;;7.65;86.13
76054;BME280;64752;48.870;9.082;2024-02-21T07:29:47;98566.19;;;8.40;82.25
76054;BME280;64752;48.870;9.082;2024-02-21T07:32:14;98554.44;;;8.73;81.81
76054;BME280;64752;48.870;9.082;2024-02-21T07:34:39;98570.31;;;9.00;80.48
76054;BME280;64752;48.870;9.082;2024-02-21T07:37:05;98560.19;;;9.31;76.75
76054;BME280;64752;48.870;9.082;2024-02-21T07:39:30;98548.19;;;9.27;77.64
76054;BME280;64752;48.870;9.082;2024-02-21T07:41:55;98546.44;;;9.27;76.55
76054;BME280;64752;48.870;9.082;2024-02-21T07:44:21;98544.63;;;9.33;78.26
76054;BME280;64752;48.870;9.082;2024-02-21T07:46:46;98542.28;;;9.61;78.26
76054;BME280;64752;48.870;9.082;2024-02-21T07:49:11;98525.09;;;9.94;75.86
76054;BME280;64752;48.870;9.082;2024-02-21T07:51:37;98529.56;;;9.89;74.21
76054;BME280;64752;48.870;9.082;2024-02-21T07:54:02;98521.84;;;9.86;75.64
76054;BME280;64752;48.870;9.082;2024-02-21T07:56:29;98532.75;;;9.22;75.67
76054;BME280;64752;48.870;9.082;2024-02-21T07:58:54;98540.41;;;9.29;76.08
76054;BME280;64752;48.870;9.082;2024-02-21T08:01:20;98535.16;;;9.32;75.25
76054;BME280;64752;48.870;9.082;2024-02-21T08:03:46;98534.16;;;9.37;74.87
76054;BME280;64752;48.870;9.082;2024-02-21T08:06:12;98531.09;;;9.20;75.65
76054;BME280;64752;48.870;9.082;2024-02-21T08:08:38;98545.50;;;9.32;75.21
76054;BME280;64752;48.870;9.082;2024-02-21T08:11:03;98537.78;;;9.30;75.70
76054;BME280;64752;48.870;9.082;2024-02-21T08:13:29;98532.22;;;9.49;73.59
76054;BME280;64752;48.870;9.082;2024-02-21T08:15:54;98532.94;;;9.54;73.15
76054;BME280;64752;48.870;9.082;2024-02-21T08:18:19;98527.78;;;9.91;72.30
76054;BME280;64752;48.870;9.082;2024-02-21T08:20:45;98527.09;;;9.83;71.80
76054;BME280;64752;48.870;9.082;2024-02-21T08:23:10;98522.47;;;9.96;72.11
76054;BME280;64752;48.870;9.082;2024-02-21T08:25:36;98535.25;;;10.39;71.73
76054;BME280;64752;48.870;9.082;2024-02-21T08:28:01;98524.03;;;10.72;69.77
76054;BME280;64752;48.870;9.082;2024-02-21T08:30:27;98527.81;;;10.58;69.41
76054;BME280;64752;48.870;9.082;2024-02-21T08:32:52;98517.63;;;10.84;68.43
76054;BME280;64752;48.870;9.082;2024-02-21T08:35:19;98508.78;;;10.59;68.17
76054;BME280;64752;48.870;9.082;2024-02-21T08:37:46;98506.16;;;10.92;67.59
76054;BME280;64752;48.870;9.082;2024-02-21T08:40:13;98501.97;;;9.87;68.33
76054;BME280;64752;48.870;9.082;2024-02-21T08:42:39;98496.63;;;10.27;68.38
76054;BME280;64752;48.870;9.082;2024-02-21T08:45:04;98493.84;;;10.02;70.35
76054;BME280;64752;48.870;9.082;2024-02-21T08:47:30;98500.63;;;9.70;71.34
76054;BME280;64752;48.870;9.082;2024-02-21T08:49:55;98494.34;;;10.16;69.04
76054;BME280;64752;48.870;9.082;2024-02-21T08:52:20;98486.91;;;10.02;70.13
76054;BME280;64752;48.870;9.082;2024-02-21T08:54:46;98485.38;;;9.94;70.90
76054;BME280;64752;48.870;9.082;2024-02-21T08:57:11;98483.34;;;10.07;70.85
76054;BME280;64752;48.870;9.082;2024-02-21T08:59:39;98482.22;;;9.82;70.22
76054;BME280;64752;48.870;9.082;2024-02-21T09:02:04;98479.75;;;10.12;70.67
76054;BME280;64752;48.870;9.082;2024-02-21T09:04:30;98477.31;;;10.06;70.11
76054;BME280;64752;48.870;9.082;2024-02-21T09:06:56;98468.09;;;10.29;69.89
76054;BME280;64752;48.870;9.082;2024-02-21T09:09:21;98477.00;;;10.18;69.18
76054;BME280;64752;48.870;9.082;2024-02-21T09:11:46;98480.69;;;10.75;67.82
76054;BME280;64752;48.870;9.082;2024-02-21T09:14:12;98482.53;;;10.72;68.08
76054;BME280;64752;48.870;9.082;2024-02-21T09:16:37;98475.75;;;10.97;67.73
76054;BME280;64752;48.870;9.082;2024-02-21T09:19:02;98471.03;;;11.10;66.02
76054;BME280;64752;48.870;9.082;2024-02-21T09:21:28;98465.94;;;11.35;65.86
76054;BME280;64752;48.870;9.082;2024-02-21T09:23:53;98460.41;;;11.46;65.56
76054;BME280;64752;48.870;9.082;2024-02-21T09:26:18;98460.44;;;11.73;63.84
76054;BME280;64752;48.870;9.082;2024-02-21T09:28:44;98453.88;;;11.61;64.54
76054;BME280;64752;48.870;9.082;2024-02-21T09:31:10;98453.91;;;12.40;62.03
76054;BME280;64752;48.870;9.082;2024-02-21T09:33:35;98455.47;;;12.92;58.56
76054;BME280;64752;48.870;9.082;2024-02-21T09:36:02;98446.31;;;12.57;60.19
76054;BME280;64752;48.870;9.082;2024-02-21T09:38:27;98451.34;;;12.87;59.43
76054;BME280;64752;48.870;9.082;2024-02-21T09:40:59;98439.72;;;12.48;58.89
76054;BME280;64752;48.870;9.082;2024-02-21T09:43:26;98439.72;;;13.63;57.14
76054;BME280;64752;48.870;9.082;2024-02-21T09:45:54;98440.75;;;13.59;56.66
76054;BME280;64752;48.870;9.082;2024-02-21T09:51:05;98423.69;;;13.28;58.03
76054;BME280;64752;48.870;9.082;2024-02-21T09:53:32;98433.38;;;13.25;58.20
76054;BME280;64752;48.870;9.082;2024-02-21T09:55:58;98434.66;;;13.60;56.66
76054;BME280;64752;48.870;9.082;2024-02-21T09:58:25;98424.31;;;14.00;55.78
76054;BME280;64752;48.870;9.082;2024-02-21T10:00:52;98430.03;;;13.45;56.30
76054;BME280;64752;48.870;9.082;2024-02-21T10:03:18;98414.41;;;13.45;55.60
76054;BME280;64752;48.870;9.082;2024-02-21T10:05:47;98415.09;;;13.71;55.57
76054;BME280;64752;48.870;9.082;2024-02-21T10:08:14;98413.50;;;13.88;54.25
76054;BME280;64752;48.870;9.082;2024-02-21T10:10:43;98408.00;;;14.36;55.04
76054;BME280;64752;48.870;9.082;2024-02-21T10:13:10;98405.09;;;14.02;56.06
76054;BME280;64752;48.870;9.082;2024-02-21T10:15:35;98401.66;;;14.41;54.30
76054;BME280;64752;48.870;9.082;2024-02-21T10:18:01;98405.31;;;14.96;53.33
76054;BME280;64752;48.870;9.082;2024-02-21T10:20:28;98392.38;;;14.55;52.76
76054;BME280;64752;48.870;9.082;2024-02-21T10:23:04;98385.00;;;14.64;52.81
76054;BME280;64752;48.870;9.082;2024-02-21T10:25:37;98383.44;;;14.79;52.32
76054;BME280;64752;48.870;9.082;2024-02-21T10:28:12;98385.06;;;13.18;55.67
76054;BME280;64752;48.870;9.082;2024-02-21T10:30:37;98388.56;;;14.43;53.88
76054;BME280;64752;48.870;9.082;2024-02-21T10:33:05;98380.56;;;13.21;55.85
76054;BME280;64752;48.870;9.082;2024-02-21T10:35:32;98377.97;;;12.99;57.22
76054;BME280;64752;48.870;9.082;2024-02-21T10:37:58;98375.56;;;13.81;55.02
76054;BME280;64752;48.870;9.082;2024-02-21T10:40:28;98368.72;;;13.58;54.06
76054;BME280;64752;48.870;9.082;2024-02-21T10:42:59;98373.66;;;14.05;54.07
76054;BME280;64752;48.870;9.082;2024-02-21T10:45:35;98367.03;;;14.57;53.48
76054;BME280;64752;48.870;9.082;2024-02-21T10:48:16;98362.06;;;15.27;51.39
76054;BME280;64752;48.870;9.082;2024-02-21T10:50:57;98358.69;;;14.69;51.78
76054;BME280;64752;48.870;9.082;2024-02-21T10:58:46;98343.97;;;15.04;51.02
76054;BME280;64752;48.870;9.082;2024-02-21T11:01:13;98339.84;;;14.81;50.67
76054;BME280;64752;48.870;9.082;2024-02-21T11:03:41;98334.34;;;14.69;51.90
76054;BME280;64752;48.870;9.082;2024-02-21T11:06:10;98327.56;;;14.64;51.93
76054;BME280;64752;48.870;9.082;2024-02-21T11:08:36;98320.44;;;14.68;51.55
76054;BME280;64752;48.870;9.082;2024-02-21T11:11:02;98316.34;;;15.53;49.71
76054;BME280;64752;48.870;9.082;2024-02-21T11:13:37;98313.22;;;15.81;49.69
76054;BME280;64752;48.870;9.082;2024-02-21T11:16:10;98308.13;;;15.95;48.40
76054;BME280;64752;48.870;9.082;2024-02-21T11:18:38;98299.28;;;15.46;49.29
76054;BME280;64752;48.870;9.082;2024-02-21T11:21:03;98296.44;;;16.18;47.25
76054;BME280;64752;48.870;9.082;2024-02-21T11:23:32;98301.88;;;16.63;46.79
76054;BME280;64752;48.870;9.082;2024-02-21T11:26:10;98294.13;;;15.96;47.94
76054;BME280;64752;48.870;9.082;2024-02-21T11:28:44;98277.69;;;16.10;48.21
76054;BME280;64752;48.870;9.082;2024-02-21T11:31:13;98272.41;;;16.28;47.85
76054;BME280;64752;48.870;9.082;2024-02-21T11:33:42;98261.81;;;15.97;48.65
76054;BME280;64752;48.870;9.082;2024-02-21T11:36:09;98264.06;;;15.88;48.24
76054;BME280;64752;48.870;9.082;2024-02-21T11:38:35;98263.00;;;15.04;49.72
76054;BME280;64752;48.870;9.082;2024-02-21T11:41:01;98256.78;;;14.90;50.34
76054;BME280;64752;48.870;9.082;2024-02-21T11:43:26;98244.53;;;14.35;51.45
76054;BME280;64752;48.870;9.082;2024-02-21T11:46:01;98248.88;;;15.43;49.39
76054;BME280;64752;48.870;9.082;2024-02-21T11:48:26;98237.50;;;15.45;49.44
76054;BME280;64752;48.870;9.082;2024-02-21T11:50:55;98237.03;;;15.54;49.75
76054;BME280;64752;48.870;9.082;2024-02-21T11:53:21;98232.16;;;15.64;49.51
76054;BME280;64752;48.870;9.082;2024-02-21T11:55:46;98223.81;;;15.57;48.79
76054;BME280;64752;48.870;9.082;2024-02-21T11:58:12;98214.16;;;15.24;49.86
76054;BME280;64752;48.870;9.082;2024-02-21T12:00:37;98214.44;;;14.65;50.50
76054;BME280;64752;48.870;9.082;2024-02-21T12:03:04;98219.59;;;14.84;50.42
76054;BME280;64752;48.870;9.082;2024-02-21T12:05:30;98209.91;;;15.39;49.63
76054;BME280;64752;48.870;9.082;2024-02-21T12:07:56;98206.13;;;15.45;49.22
76054;BME280;64752;48.870;9.082;2024-02-21T12:10:23;98197.94;;;16.02;48.29
76054;BME280;64752;48.870;9.082;2024-02-21T12:13:04;98188.41;;;16.16;47.44
76054;BME280;64752;48.870;9.082;2024-02-21T12:15:31;98183.16;;;16.00;47.66
76054;BME280;64752;48.870;9.082;2024-02-21T12:17:56;98172.00;;;15.48;49.29
76054;BME280;64752;48.870;9.082;2024-02-21T12:20:22;98172.63;;;16.02;47.89
76054;BME280;64752;48.870;9.082;2024-02-21T12:22:53;98165.00;;;16.13;47.57
76054;BME280;64752;48.870;9.082;2024-02-21T12:25:22;98160.44;;;16.95;46.38
76054;BME280;64752;48.870;9.082;2024-02-21T12:27:50;98146.53;;;16.79;46.52
76054;BME280;64752;48.870;9.082;2024-02-21T12:30:16;98146.19;;;16.69;47.63
76054;BME280;64752;48.870;9.082;2024-02-21T12:32:41;98136.94;;;16.01;48.51
76054;BME280;64752;48.870;9.082;2024-02-21T12:35:07;98138.00;;;16.75;46.23
76054;BME280;64752;48.870;9.082;2024-02-21T12:37:32;98135.34;;;16.61;47.60
76054;BME280;64752;48.870;9.082;2024-02-21T12:39:58;98124.31;;;16.70;46.55
76054;BME280;64752;48.870;9.082;2024-02-21T12:42:24;98124.09;;;16.12;47.54
76054;BME280;64752;48.870;9.082;2024-02-21T12:44:50;98119.75;;;16.73;46.82
76054;BME280;64752;48.870;9.082;2024-02-21T12:47:16;98112.38;;;17.10;45.84
76054;BME280;64752;48.870;9.082;2024-02-21T12:49:43;98104.44;;;17.41;45.51
76054;BME280;64752;48.870;9.082;2024-02-21T12:52:09;98096.25;;;16.88;48.29
76054;BME280;64752;48.870;9.082;2024-02-21T12:54:37;98090.66;;;17.37;45.83
76054;BME280;64752;48.870;9.082;2024-02-21T12:57:02;98083.81;;;17.49;44.65
76054;BME280;64752;48.870;9.082;2024-02-21T12:59:29;98088.16;;;16.76;46.77
76054;BME280;64752;48.870;9.082;2024-02-21T13:01:54;98074.56;;;17.14;45.94
76054;BME280;64752;48.870;9.082;2024-02-21T13:04:20;98072.41;;;17.36;45.26